sensor_id;sensor_type;location;lat;lon;timestamp;P1;durP1;ratioP1;P2;durP2;ratioP2
4504;SDS011;2265;48.794;9.520;2023-04-15T00:01:26;5.37;;;2.30;;
4504;SDS011;2265;48.794;9.520;2023-04-15T00:03:55;3.80;;;2.37;;
4504;SDS011;2265;48.794;9.520;2023-04-15T00:06:23;2.93;;;1.90;;
4504;SDS011;2265;48.794;9.520;2023-04-15T00:08:51;3.80;;;2.13;;
4504;SDS011;2265;48.794;9.520;2023-04-15T00:11:19;5.13;;;2.27;;
4504;SDS011;2265;48.794;9.520;2023-04-15T00:13:46;2.80;;;2.00;;
4504;SDS011;2265;48.794;9.520;2023-04-15T00:16:16;2.43;;;2.00;;
4504;SDS011;2265;48.794;9.520;2023-04-15T00:18:44;2.40;;;2.00;;
4504;SDS011;2265;48.794;9.520;2023-04-15T00:21:11;3.93;;;2.13;;
4504;SDS011;2265;48.794;9.520;2023-04-15T00:23:38;3.17;;;1.87;;
4504;SDS011;2265;48.794;9.520;2023-04-15T00:26:05;3.30;;;1.83;;
4504;SDS011;2265;48.794;9.520;2023-04-15T00:28:32;3.70;;;2.37;;
4504;SDS011;2265;48.794;9.520;2023-04-15T00:31:03;3.30;;;1.97;;
4504;SDS011;2265;48.794;9.520;2023-04-15T00:33:31;4.23;;;2.00;;
4504;SDS011;2265;48.794;9.520;2023-04-15T00:35:58;3.67;;;2.23;;
4504;SDS011;2265;48.794;9.520;2023-04-15T00:38:25;2.83;;;1.90;;
4504;SDS011;2265;48.794;9.520;2023-04-15T00:40:52;3.90;;;2.03;;
4504;SDS011;2265;48.794;9.520;2023-04-15T00:43:20;3.10;;;1.97;;
4504;SDS011;2265;48.794;9.520;2023-04-15T00:45:47;4.03;;;1.90;;
4504;SDS011;2265;48.794;9.520;2023-04-15T00:48:15;6.70;;;2.47;;
4504;SDS011;2265;48.794;9.520;2023-04-15T00:50:43;2.83;;;2.10;;
4504;SDS011;2265;48.794;9.520;2023-04-15T00:53:10;3.93;;;2.37;;
4504;SDS011;2265;48.794;9.520;2023-04-15T00:55:37;2.20;;;2.00;;
4504;SDS011;2265;48.794;9.520;2023-04-15T00:58:06;7.03;;;2.00;;
4504;SDS011;2265;48.794;9.520;2023-04-15T01:00:33;3.07;;;2.03;;
4504;SDS011;2265;48.794;9.520;2023-04-15T01:03:02;2.57;;;1.73;;
4504;SDS011;2265;48.794;9.520;2023-04-15T01:05:30;2.70;;;2.27;;
4504;SDS011;2265;48.794;9.520;2023-04-15T01:07:59;3.27;;;2.10;;
4504;SDS011;2265;48.794;9.520;2023-04-15T01:10:26;5.33;;;1.83;;
4504;SDS011;2265;48.794;9.520;2023-04-15T01:12:54;4.50;;;1.73;;
4504;SDS011;2265;48.794;9.520;2023-04-15T01:15:21;2.63;;;1.80;;
4504;SDS011;2265;48.794;9.520;2023-04-15T01:17:49;2.70;;;2.20;;
4504;SDS011;2265;48.794;9.520;2023-04-15T01:20:17;2.87;;;2.00;;
4504;SDS011;2265;48.794;9.520;2023-04-15T01:22:49;2.83;;;1.63;;
4504;SDS011;2265;48.794;9.520;2023-04-15T01:25:19;3.27;;;1.93;;
4504;SDS011;2265;48.794;9.520;2023-04-15T01:27:56;2.73;;;1.80;;
4504;SDS011;2265;48.794;9.520;2023-04-15T01:30:23;2.80;;;1.77;;
4504;SDS011;2265;48.794;9.520;2023-04-15T01:32:51;2.40;;;1.80;;
4504;SDS011;2265;48.794;9.520;2023-04-15T01:35:19;6.60;;;2.37;;
4504;SDS011;2265;48.794;9.520;2023-04-15T01:37:46;3.10;;;1.73;;
4504;SDS011;2265;48.794;9.520;2023-04-15T01:40:15;3.13;;;2.27;;
4504;SDS011;2265;48.794;9.520;2023-04-15T01:42:44;2.77;;;2.27;;
4504;SDS011;2265;48.794;9.520;2023-04-15T01:45:11;2.97;;;1.87;;
4504;SDS011;2265;48.794;9.520;2023-04-15T01:47:38;1.83;;;1.40;;
4504;SDS011;2265;48.794;9.520;2023-04-15T01:50:06;2.93;;;1.63;;
4504;SDS011;2265;48.794;9.520;2023-04-15T01:52:33;1.97;;;1.73;;
4504;SDS011;2265;48.794;9.520;2023-04-15T01:55:01;3.03;;;1.53;;
4504;SDS011;2265;48.794;9.520;2023-04-15T01:57:28;1.87;;;1.40;;
4504;SDS011;2265;48.794;9.520;2023-04-15T01:59:56;1.60;;;1.60;;
4504;SDS011;2265;48.794;9.520;2023-04-15T02:02:23;2.60;;;1.80;;
4504;SDS011;2265;48.794;9.520;2023-04-15T02:04:50;3.40;;;1.63;;
4504;SDS011;2265;48.794;9.520;2023-04-15T02:07:17;1.70;;;1.53;;
4504;SDS011;2265;48.794;9.520;2023-04-15T02:09:44;1.70;;;1.33;;
4504;SDS011;2265;48.794;9.520;2023-04-15T02:12:11;2.10;;;1.60;;
4504;SDS011;2265;48.794;9.520;2023-04-15T02:14:39;1.70;;;1.50;;
4504;SDS011;2265;48.794;9.520;2023-04-15T02:17:07;2.93;;;1.70;;
4504;SDS011;2265;48.794;9.520;2023-04-15T02:19:34;2.33;;;1.90;;
4504;SDS011;2265;48.794;9.520;2023-04-15T02:22:03;2.13;;;1.60;;
4504;SDS011;2265;48.794;9.520;2023-04-15T02:24:32;1.60;;;1.50;;
4504;SDS011;2265;48.794;9.520;2023-04-15T02:26:59;2.40;;;1.77;;
4504;SDS011;2265;48.794;9.520;2023-04-15T02:29:27;1.93;;;1.87;;
4504;SDS011;2265;48.794;9.520;2023-04-15T02:31:56;2.17;;;1.83;;
4504;SDS011;2265;48.794;9.520;2023-04-15T02:34:25;3.43;;;1.90;;
4504;SDS011;2265;48.794;9.520;2023-04-15T02:36:52;3.03;;;2.07;;
4504;SDS011;2265;48.794;9.520;2023-04-15T02:39:21;3.20;;;1.70;;
4504;SDS011;2265;48.794;9.520;2023-04-15T02:41:48;2.53;;;1.83;;
4504;SDS011;2265;48.794;9.520;2023-04-15T02:44:16;1.93;;;1.70;;
4504;SDS011;2265;48.794;9.520;2023-04-15T02:46:44;3.83;;;2.00;;
4504;SDS011;2265;48.794;9.520;2023-04-15T02:49:16;1.97;;;1.50;;
4504;SDS011;2265;48.794;9.520;2023-04-15T02:51:45;1.80;;;1.60;;
4504;SDS011;2265;48.794;9.520;2023-04-15T02:54:13;2.23;;;1.73;;
4504;SDS011;2265;48.794;9.520;2023-04-15T02:56:40;1.57;;;1.50;;
4504;SDS011;2265;48.794;9.520;2023-04-15T02:59:08;2.07;;;1.80;;
4504;SDS011;2265;48.794;9.520;2023-04-15T03:01:35;2.00;;;1.73;;
4504;SDS011;2265;48.794;9.520;2023-04-15T03:04:02;2.80;;;1.57;;
4504;SDS011;2265;48.794;9.520;2023-04-15T03:06:30;2.50;;;1.60;;
4504;SDS011;2265;48.794;9.520;2023-04-15T03:08:58;2.03;;;1.60;;
4504;SDS011;2265;48.794;9.520;2023-04-15T03:11:26;2.17;;;1.70;;
4504;SDS011;2265;48.794;9.520;2023-04-15T03:13:55;2.23;;;1.43;;
4504;SDS011;2265;48.794;9.520;2023-04-15T03:16:22;2.53;;;1.90;;
4504;SDS011;2265;48.794;9.520;2023-04-15T03:18:50;4.60;;;1.67;;
4504;SDS011;2265;48.794;9.520;2023-04-15T03:21:18;1.60;;;1.47;;
4504;SDS011;2265;48.794;9.520;2023-04-15T03:23:45;1.50;;;1.20;;
4504;SDS011;2265;48.794;9.520;2023-04-15T03:26:24;2.07;;;1.63;;
4504;SDS011;2265;48.794;9.520;2023-04-15T03:28:52;1.80;;;1.50;;
4504;SDS011;2265;48.794;9.520;2023-04-15T03:31:19;1.90;;;1.33;;
4504;SDS011;2265;48.794;9.520;2023-04-15T03:33:46;2.43;;;1.70;;
4504;SDS011;2265;48.794;9.520;2023-04-15T03:36:14;2.10;;;1.50;;
4504;SDS011;2265;48.794;9.520;2023-04-15T03:38:41;2.97;;;1.50;;
4504;SDS011;2265;48.794;9.520;2023-04-15T03:41:08;3.40;;;1.80;;
4504;SDS011;2265;48.794;9.520;2023-04-15T03:43:37;2.90;;;1.60;;
4504;SDS011;2265;48.794;9.520;2023-04-15T03:46:05;2.43;;;1.50;;
4504;SDS011;2265;48.794;9.520;2023-04-15T03:48:34;5.47;;;3.07;;
4504;SDS011;2265;48.794;9.520;2023-04-15T03:51:01;2.63;;;1.70;;
4504;SDS011;2265;48.794;9.520;2023-04-15T03:53:28;9.60;;;1.80;;
4504;SDS011;2265;48.794;9.520;2023-04-15T03:55:55;3.63;;;1.53;;
4504;SDS011;2265;48.794;9.520;2023-04-15T03:58:22;2.90;;;1.33;;
4504;SDS011;2265;48.794;9.520;2023-04-15T04:00:50;1.90;;;1.57;;
4504;SDS011;2265;48.794;9.520;2023-04-15T04:03:18;7.20;;;1.60;;
4504;SDS011;2265;48.794;9.520;2023-04-15T04:05:46;2.10;;;1.90;;
4504;SDS011;2265;48.794;9.520;2023-04-15T04:08:13;1.37;;;1.33;;
4504;SDS011;2265;48.794;9.520;2023-04-15T04:10:40;2.40;;;1.67;;
4504;SDS011;2265;48.794;9.520;2023-04-15T04:13:08;2.43;;;1.70;;
4504;SDS011;2265;48.794;9.520;2023-04-15T04:15:35;3.07;;;1.87;;
4504;SDS011;2265;48.794;9.520;2023-04-15T04:18:03;4.20;;;1.60;;
4504;SDS011;2265;48.794;9.520;2023-04-15T04:20:32;1.30;;;1.20;;
4504;SDS011;2265;48.794;9.520;2023-04-15T04:22:59;3.20;;;1.80;;
4504;SDS011;2265;48.794;9.520;2023-04-15T04:25:26;5.23;;;1.90;;
4504;SDS011;2265;48.794;9.520;2023-04-15T04:27:53;2.07;;;1.57;;
4504;SDS011;2265;48.794;9.520;2023-04-15T04:30:20;1.90;;;1.60;;
4504;SDS011;2265;48.794;9.520;2023-04-15T04:32:48;2.43;;;1.50;;
4504;SDS011;2265;48.794;9.520;2023-04-15T04:35:17;3.83;;;1.73;;
4504;SDS011;2265;48.794;9.520;2023-04-15T04:37:47;2.40;;;1.53;;
4504;SDS011;2265;48.794;9.520;2023-04-15T04:40:15;2.30;;;1.50;;
4504;SDS011;2265;48.794;9.520;2023-04-15T04:42:42;3.30;;;2.23;;
4504;SDS011;2265;48.794;9.520;2023-04-15T04:45:09;2.70;;;1.77;;
4504;SDS011;2265;48.794;9.520;2023-04-15T04:47:37;11.33;;;2.43;;
4504;SDS011;2265;48.794;9.520;2023-04-15T04:50:06;2.00;;;1.73;;
4504;SDS011;2265;48.794;9.520;2023-04-15T04:52:36;1.83;;;1.43;;
4504;SDS011;2265;48.794;9.520;2023-04-15T04:55:03;2.23;;;1.50;;
4504;SDS011;2265;48.794;9.520;2023-04-15T04:57:32;2.40;;;1.33;;
4504;SDS011;2265;48.794;9.520;2023-04-15T05:00:02;1.30;;;1.17;;
4504;SDS011;2265;48.794;9.520;2023-04-15T05:02:29;1.80;;;1.60;;
4504;SDS011;2265;48.794;9.520;2023-04-15T05:04:57;3.17;;;2.30;;
4504;SDS011;2265;48.794;9.520;2023-04-15T05:07:24;2.33;;;1.47;;
4504;SDS011;2265;48.794;9.520;2023-04-15T05:09:53;1.77;;;1.40;;
4504;SDS011;2265;48.794;9.520;2023-04-15T05:12:20;2.47;;;1.50;;
4504;SDS011;2265;48.794;9.520;2023-04-15T05:14:48;2.27;;;1.80;;
4504;SDS011;2265;48.794;9.520;2023-04-15T05:17:15;2.17;;;1.80;;
4504;SDS011;2265;48.794;9.520;2023-04-15T05:19:43;3.90;;;1.90;;
4504;SDS011;2265;48.794;9.520;2023-04-15T05:22:10;2.57;;;1.90;;
4504;SDS011;2265;48.794;9.520;2023-04-15T05:24:37;4.50;;;2.40;;
4504;SDS011;2265;48.794;9.520;2023-04-15T05:27:06;1.77;;;1.33;;
4504;SDS011;2265;48.794;9.520;2023-04-15T05:29:35;2.23;;;1.60;;
4504;SDS011;2265;48.794;9.520;2023-04-15T05:32:02;1.50;;;1.50;;
4504;SDS011;2265;48.794;9.520;2023-04-15T05:34:30;3.00;;;2.07;;
4504;SDS011;2265;48.794;9.520;2023-04-15T05:36:57;2.30;;;1.83;;
4504;SDS011;2265;48.794;9.520;2023-04-15T05:39:24;1.80;;;1.70;;
4504;SDS011;2265;48.794;9.520;2023-04-15T05:41:51;3.43;;;2.07;;
4504;SDS011;2265;48.794;9.520;2023-04-15T05:44:20;4.33;;;1.80;;
4504;SDS011;2265;48.794;9.520;2023-04-15T05:46:47;2.50;;;2.10;;
4504;SDS011;2265;48.794;9.520;2023-04-15T05:49:14;4.13;;;1.50;;
4504;SDS011;2265;48.794;9.520;2023-04-15T05:51:41;2.00;;;1.50;;
4504;SDS011;2265;48.794;9.520;2023-04-15T05:54:12;1.80;;;1.50;;
4504;SDS011;2265;48.794;9.520;2023-04-15T05:56:39;2.13;;;1.80;;
4504;SDS011;2265;48.794;9.520;2023-04-15T05:59:06;3.70;;;2.10;;
4504;SDS011;2265;48.794;9.520;2023-04-15T06:01:35;2.23;;;1.63;;
4504;SDS011;2265;48.794;9.520;2023-04-15T06:04:05;4.17;;;2.10;;
4504;SDS011;2265;48.794;9.520;2023-04-15T06:06:33;2.83;;;1.83;;
4504;SDS011;2265;48.794;9.520;2023-04-15T06:09:00;1.90;;;1.40;;
4504;SDS011;2265;48.794;9.520;2023-04-15T06:11:27;2.70;;;1.83;;
4504;SDS011;2265;48.794;9.520;2023-04-15T06:13:54;2.17;;;1.40;;
4504;SDS011;2265;48.794;9.520;2023-04-15T06:16:21;4.47;;;2.03;;
4504;SDS011;2265;48.794;9.520;2023-04-15T06:18:52;3.17;;;2.10;;
4504;SDS011;2265;48.794;9.520;2023-04-15T06:21:19;3.23;;;2.20;;
4504;SDS011;2265;48.794;9.520;2023-04-15T06:23:46;2.33;;;1.60;;
4504;SDS011;2265;48.794;9.520;2023-04-15T06:26:13;10.30;;;1.90;;
4504;SDS011;2265;48.794;9.520;2023-04-15T06:28:40;1.93;;;1.70;;
4504;SDS011;2265;48.794;9.520;2023-04-15T06:31:08;3.13;;;1.60;;
4504;SDS011;2265;48.794;9.520;2023-04-15T06:33:35;5.77;;;2.20;;
4504;SDS011;2265;48.794;9.520;2023-04-15T06:36:04;3.57;;;2.10;;
4504;SDS011;2265;48.794;9.520;2023-04-15T06:38:32;2.60;;;1.77;;
4504;SDS011;2265;48.794;9.520;2023-04-15T06:40:59;2.23;;;1.43;;
4504;SDS011;2265;48.794;9.520;2023-04-15T06:43:26;2.70;;;2.10;;
4504;SDS011;2265;48.794;9.520;2023-04-15T06:45:53;4.50;;;2.20;;
4504;SDS011;2265;48.794;9.520;2023-04-15T06:48:20;2.23;;;1.97;;
4504;SDS011;2265;48.794;9.520;2023-04-15T06:50:48;3.23;;;2.17;;
4504;SDS011;2265;48.794;9.520;2023-04-15T06:53:18;3.60;;;2.10;;
4504;SDS011;2265;48.794;9.520;2023-04-15T06:55:46;3.53;;;2.10;;
4504;SDS011;2265;48.794;9.520;2023-04-15T06:58:14;7.47;;;2.27;;
4504;SDS011;2265;48.794;9.520;2023-04-15T07:00:41;4.37;;;2.27;;
4504;SDS011;2265;48.794;9.520;2023-04-15T07:03:11;6.07;;;1.90;;
4504;SDS011;2265;48.794;9.520;2023-04-15T07:05:40;3.80;;;2.53;;
4504;SDS011;2265;48.794;9.520;2023-04-15T07:08:07;1.80;;;1.63;;
4504;SDS011;2265;48.794;9.520;2023-04-15T07:10:36;2.73;;;1.97;;
4504;SDS011;2265;48.794;9.520;2023-04-15T07:13:03;2.77;;;2.17;;
4504;SDS011;2265;48.794;9.520;2023-04-15T07:15:33;3.57;;;2.40;;
4504;SDS011;2265;48.794;9.520;2023-04-15T07:18:00;3.13;;;2.20;;
4504;SDS011;2265;48.794;9.520;2023-04-15T07:20:27;3.10;;;2.10;;
4504;SDS011;2265;48.794;9.520;2023-04-15T07:22:55;5.33;;;2.57;;
4504;SDS011;2265;48.794;9.520;2023-04-15T07:25:22;4.03;;;2.10;;
4504;SDS011;2265;48.794;9.520;2023-04-15T07:27:51;5.03;;;2.50;;
4504;SDS011;2265;48.794;9.520;2023-04-15T07:30:18;6.33;;;2.70;;
4504;SDS011;2265;48.794;9.520;2023-04-15T07:32:45;3.67;;;2.43;;
4504;SDS011;2265;48.794;9.520;2023-04-15T07:35:12;5.07;;;2.90;;
4504;SDS011;2265;48.794;9.520;2023-04-15T07:37:40;4.60;;;2.50;;
4504;SDS011;2265;48.794;9.520;2023-04-15T07:40:08;5.20;;;2.50;;
4504;SDS011;2265;48.794;9.520;2023-04-15T07:42:36;6.57;;;3.10;;
4504;SDS011;2265;48.794;9.520;2023-04-15T07:45:05;4.17;;;2.63;;
4504;SDS011;2265;48.794;9.520;2023-04-15T07:47:33;5.40;;;2.90;;
4504;SDS011;2265;48.794;9.520;2023-04-15T07:50:01;6.33;;;2.50;;
4504;SDS011;2265;48.794;9.520;2023-04-15T07:52:28;6.13;;;2.40;;
4504;SDS011;2265;48.794;9.520;2023-04-15T07:54:55;4.53;;;3.00;;
4504;SDS011;2265;48.794;9.520;2023-04-15T07:57:22;3.80;;;2.63;;
4504;SDS011;2265;48.794;9.520;2023-04-15T07:59:50;6.13;;;2.20;;
4504;SDS011;2265;48.794;9.520;2023-04-15T08:02:18;3.30;;;2.47;;
4504;SDS011;2265;48.794;9.520;2023-04-15T08:04:46;4.30;;;2.50;;
4504;SDS011;2265;48.794;9.520;2023-04-15T08:07:13;3.30;;;2.10;;
4504;SDS011;2265;48.794;9.520;2023-04-15T08:09:41;3.43;;;2.37;;
4504;SDS011;2265;48.794;9.520;2023-04-15T08:12:09;4.30;;;2.50;;
4504;SDS011;2265;48.794;9.520;2023-04-15T08:14:37;4.30;;;2.60;;
4504;SDS011;2265;48.794;9.520;2023-04-15T08:17:04;3.80;;;2.20;;
4504;SDS011;2265;48.794;9.520;2023-04-15T08:19:33;2.50;;;1.90;;
4504;SDS011;2265;48.794;9.520;2023-04-15T08:22:00;3.80;;;2.17;;
4504;SDS011;2265;48.794;9.520;2023-04-15T08:24:29;11.73;;;2.90;;
4504;SDS011;2265;48.794;9.520;2023-04-15T08:26:56;3.13;;;1.97;;
4504;SDS011;2265;48.794;9.520;2023-04-15T08:29:24;3.13;;;2.07;;
4504;SDS011;2265;48.794;9.520;2023-04-15T08:31:52;4.50;;;2.20;;
4504;SDS011;2265;48.794;9.520;2023-04-15T08:34:22;6.20;;;2.17;;
4504;SDS011;2265;48.794;9.520;2023-04-15T08:36:51;2.97;;;1.90;;
4504;SDS011;2265;48.794;9.520;2023-04-15T08:39:18;2.63;;;1.57;;
4504;SDS011;2265;48.794;9.520;2023-04-15T08:41:46;3.90;;;1.97;;
4504;SDS011;2265;48.794;9.520;2023-04-15T08:44:18;2.87;;;1.90;;
4504;SDS011;2265;48.794;9.520;2023-04-15T08:46:46;7.33;;;2.27;;
4504;SDS011;2265;48.794;9.520;2023-04-15T08:49:13;7.60;;;2.13;;
4504;SDS011;2265;48.794;9.520;2023-04-15T08:51:43;3.80;;;2.10;;
4504;SDS011;2265;48.794;9.520;2023-04-15T08:54:12;3.27;;;2.37;;
4504;SDS011;2265;48.794;9.520;2023-04-15T08:56:39;2.10;;;1.70;;
4504;SDS011;2265;48.794;9.520;2023-04-15T08:59:07;3.50;;;2.17;;
4504;SDS011;2265;48.794;9.520;2023-04-15T09:01:36;4.10;;;2.50;;
4504;SDS011;2265;48.794;9.520;2023-04-15T09:04:03;4.70;;;2.10;;
4504;SDS011;2265;48.794;9.520;2023-04-15T09:06:32;4.40;;;2.10;;
4504;SDS011;2265;48.794;9.520;2023-04-15T09:08:59;7.43;;;2.73;;
4504;SDS011;2265;48.794;9.520;2023-04-15T09:11:29;6.57;;;2.23;;
4504;SDS011;2265;48.794;9.520;2023-04-15T09:14:00;2.73;;;1.97;;
4504;SDS011;2265;48.794;9.520;2023-04-15T09:16:27;8.03;;;2.40;;
4504;SDS011;2265;48.794;9.520;2023-04-15T09:18:54;4.43;;;2.50;;
4504;SDS011;2265;48.794;9.520;2023-04-15T09:21:23;9.53;;;2.50;;
4504;SDS011;2265;48.794;9.520;2023-04-15T09:23:54;3.73;;;2.37;;
4504;SDS011;2265;48.794;9.520;2023-04-15T09:26:33;6.97;;;2.00;;
4504;SDS011;2265;48.794;9.520;2023-04-15T09:29:02;2.50;;;1.77;;
4504;SDS011;2265;48.794;9.520;2023-04-15T09:31:31;2.10;;;1.73;;
4504;SDS011;2265;48.794;9.520;2023-04-15T09:34:00;2.90;;;2.37;;
4504;SDS011;2265;48.794;9.520;2023-04-15T09:36:28;7.20;;;2.20;;
4504;SDS011;2265;48.794;9.520;2023-04-15T09:38:55;3.23;;;2.10;;
4504;SDS011;2265;48.794;9.520;2023-04-15T09:41:27;2.83;;;1.90;;
4504;SDS011;2265;48.794;9.520;2023-04-15T09:43:55;2.40;;;1.73;;
4504;SDS011;2265;48.794;9.520;2023-04-15T09:49:08;3.50;;;2.00;;
4504;SDS011;2265;48.794;9.520;2023-04-15T09:51:36;2.30;;;1.83;;
4504;SDS011;2265;48.794;9.520;2023-04-15T09:54:03;2.77;;;1.67;;
4504;SDS011;2265;48.794;9.520;2023-04-15T09:56:31;3.10;;;1.70;;
4504;SDS011;2265;48.794;9.520;2023-04-15T09:59:03;2.60;;;1.63;;
4504;SDS011;2265;48.794;9.520;2023-04-15T10:01:32;2.57;;;1.80;;
4504;SDS011;2265;48.794;9.520;2023-04-15T10:04:01;2.57;;;2.00;;
4504;SDS011;2265;48.794;9.520;2023-04-15T10:06:30;5.60;;;2.17;;
4504;SDS011;2265;48.794;9.520;2023-04-15T10:08:59;5.67;;;2.27;;
4504;SDS011;2265;48.794;9.520;2023-04-15T10:11:27;3.63;;;1.70;;
4504;SDS011;2265;48.794;9.520;2023-04-15T10:13:55;3.20;;;2.10;;
4504;SDS011;2265;48.794;9.520;2023-04-15T10:16:25;3.70;;;2.07;;
4504;SDS011;2265;48.794;9.520;2023-04-15T10:18:54;5.20;;;2.30;;
4504;SDS011;2265;48.794;9.520;2023-04-15T10:21:22;3.13;;;2.20;;
4504;SDS011;2265;48.794;9.520;2023-04-15T10:23:50;3.60;;;2.27;;
4504;SDS011;2265;48.794;9.520;2023-04-15T10:26:17;3.77;;;2.00;;
4504;SDS011;2265;48.794;9.520;2023-04-15T10:28:45;4.73;;;2.40;;
4504;SDS011;2265;48.794;9.520;2023-04-15T10:31:14;6.93;;;2.70;;
4504;SDS011;2265;48.794;9.520;2023-04-15T10:33:43;3.47;;;2.40;;
4504;SDS011;2265;48.794;9.520;2023-04-15T10:36:12;4.87;;;2.63;;
4504;SDS011;2265;48.794;9.520;2023-04-15T10:38:41;5.20;;;2.60;;
4504;SDS011;2265;48.794;9.520;2023-04-15T10:41:16;3.63;;;2.40;;
4504;SDS011;2265;48.794;9.520;2023-04-15T10:43:46;2.70;;;1.90;;
4504;SDS011;2265;48.794;9.520;2023-04-15T10:46:17;5.93;;;2.13;;
4504;SDS011;2265;48.794;9.520;2023-04-15T10:48:50;4.47;;;2.50;;
4504;SDS011;2265;48.794;9.520;2023-04-15T10:51:27;3.70;;;2.30;;
4504;SDS011;2265;48.794;9.520;2023-04-15T10:54:02;5.60;;;2.27;;
4504;SDS011;2265;48.794;9.520;2023-04-15T10:56:35;6.00;;;2.33;;
4504;SDS011;2265;48.794;9.520;2023-04-15T10:59:03;3.53;;;1.83;;
4504;SDS011;2265;48.794;9.520;2023-04-15T11:01:50;3.00;;;2.20;;
4504;SDS011;2265;48.794;9.520;2023-04-15T11:07:34;5.30;;;2.40;;
4504;SDS011;2265;48.794;9.520;2023-04-15T11:10:02;3.57;;;2.40;;
4504;SDS011;2265;48.794;9.520;2023-04-15T11:12:50;4.03;;;2.50;;
4504;SDS011;2265;48.794;9.520;2023-04-15T11:15:26;8.17;;;3.00;;
4504;SDS011;2265;48.794;9.520;2023-04-15T11:17:55;3.77;;;2.40;;
4504;SDS011;2265;48.794;9.520;2023-04-15T11:20:22;4.23;;;2.40;;
4504;SDS011;2265;48.794;9.520;2023-04-15T11:22:51;8.63;;;2.97;;
4504;SDS011;2265;48.794;9.520;2023-04-15T11:25:23;6.80;;;3.03;;
4504;SDS011;2265;48.794;9.520;2023-04-15T11:27:51;6.00;;;2.80;;
4504;SDS011;2265;48.794;9.520;2023-04-15T11:30:19;6.80;;;2.70;;
4504;SDS011;2265;48.794;9.520;2023-04-15T11:32:54;3.00;;;2.10;;
4504;SDS011;2265;48.794;9.520;2023-04-15T11:35:23;5.10;;;2.07;;
4504;SDS011;2265;48.794;9.520;2023-04-15T11:37:52;5.33;;;2.93;;
4504;SDS011;2265;48.794;9.520;2023-04-15T11:40:21;7.10;;;2.60;;
4504;SDS011;2265;48.794;9.520;2023-04-15T11:43:02;4.17;;;2.50;;
4504;SDS011;2265;48.794;9.520;2023-04-15T11:45:30;5.80;;;2.70;;
4504;SDS011;2265;48.794;9.520;2023-04-15T11:48:03;5.00;;;2.60;;
4504;SDS011;2265;48.794;9.520;2023-04-15T11:50:32;3.67;;;2.33;;
4504;SDS011;2265;48.794;9.520;2023-04-15T11:53:01;4.10;;;2.40;;
4504;SDS011;2265;48.794;9.520;2023-04-15T11:55:39;5.07;;;2.80;;
4504;SDS011;2265;48.794;9.520;2023-04-15T11:58:11;4.47;;;2.43;;
4504;SDS011;2265;48.794;9.520;2023-04-15T12:00:40;4.23;;;2.67;;
4504;SDS011;2265;48.794;9.520;2023-04-15T12:03:13;5.00;;;3.10;;
4504;SDS011;2265;48.794;9.520;2023-04-15T12:06:04;7.83;;;3.43;;
4504;SDS011;2265;48.794;9.520;2023-04-15T12:11:28;3.60;;;2.40;;
4504;SDS011;2265;48.794;9.520;2023-04-15T12:14:04;4.50;;;2.57;;
4504;SDS011;2265;48.794;9.520;2023-04-15T12:16:33;4.13;;;2.60;;
4504;SDS011;2265;48.794;9.520;2023-04-15T12:19:03;6.47;;;2.60;;
4504;SDS011;2265;48.794;9.520;2023-04-15T12:21:34;6.80;;;2.60;;
4504;SDS011;2265;48.794;9.520;2023-04-15T12:24:04;5.00;;;2.80;;
4504;SDS011;2265;48.794;9.520;2023-04-15T12:26:33;3.83;;;2.20;;
4504;SDS011;2265;48.794;9.520;2023-04-15T12:29:02;3.13;;;2.17;;
4504;SDS011;2265;48.794;9.520;2023-04-15T12:31:31;3.03;;;2.13;;
4504;SDS011;2265;48.794;9.520;2023-04-15T12:33:59;4.00;;;2.47;;
4504;SDS011;2265;48.794;9.520;2023-04-15T12:36:26;3.87;;;2.07;;
4504;SDS011;2265;48.794;9.520;2023-04-15T12:38:54;3.80;;;2.33;;
4504;SDS011;2265;48.794;9.520;2023-04-15T12:41:24;6.30;;;2.60;;
4504;SDS011;2265;48.794;9.520;2023-04-15T12:43:51;5.50;;;2.30;;
4504;SDS011;2265;48.794;9.520;2023-04-15T12:46:18;3.23;;;2.23;;
4504;SDS011;2265;48.794;9.520;2023-04-15T12:48:45;3.40;;;2.23;;
4504;SDS011;2265;48.794;9.520;2023-04-15T12:51:12;3.70;;;2.47;;
4504;SDS011;2265;48.794;9.520;2023-04-15T12:53:39;3.20;;;2.10;;
4504;SDS011;2265;48.794;9.520;2023-04-15T12:56:07;3.57;;;2.30;;
4504;SDS011;2265;48.794;9.520;2023-04-15T12:58:35;4.20;;;2.17;;
4504;SDS011;2265;48.794;9.520;2023-04-15T13:01:02;3.90;;;2.10;;
4504;SDS011;2265;48.794;9.520;2023-04-15T13:03:30;4.63;;;2.30;;
4504;SDS011;2265;48.794;9.520;2023-04-15T13:05:58;2.67;;;1.80;;
4504;SDS011;2265;48.794;9.520;2023-04-15T13:08:26;3.47;;;2.10;;
4504;SDS011;2265;48.794;9.520;2023-04-15T13:10:53;2.20;;;1.83;;
4504;SDS011;2265;48.794;9.520;2023-04-15T13:13:21;2.50;;;1.83;;
4504;SDS011;2265;48.794;9.520;2023-04-15T13:15:50;4.40;;;2.20;;
4504;SDS011;2265;48.794;9.520;2023-04-15T13:18:17;3.03;;;2.03;;
4504;SDS011;2265;48.794;9.520;2023-04-15T13:20:44;3.33;;;1.93;;
4504;SDS011;2265;48.794;9.520;2023-04-15T13:23:12;2.97;;;1.53;;
4504;SDS011;2265;48.794;9.520;2023-04-15T13:25:40;2.57;;;1.70;;
4504;SDS011;2265;48.794;9.520;2023-04-15T13:28:07;2.30;;;1.83;;
4504;SDS011;2265;48.794;9.520;2023-04-15T13:30:36;2.83;;;1.70;;
4504;SDS011;2265;48.794;9.520;2023-04-15T13:33:05;1.50;;;1.40;;
4504;SDS011;2265;48.794;9.520;2023-04-15T13:35:32;3.30;;;1.60;;
4504;SDS011;2265;48.794;9.520;2023-04-15T13:37:59;1.50;;;1.37;;
4504;SDS011;2265;48.794;9.520;2023-04-15T13:40:26;2.20;;;1.80;;
4504;SDS011;2265;48.794;9.520;2023-04-15T13:42:53;6.27;;;1.70;;
4504;SDS011;2265;48.794;9.520;2023-04-15T13:45:21;2.30;;;1.57;;
4504;SDS011;2265;48.794;9.520;2023-04-15T13:47:48;2.23;;;1.43;;
4504;SDS011;2265;48.794;9.520;2023-04-15T13:50:24;2.03;;;1.60;;
4504;SDS011;2265;48.794;9.520;2023-04-15T13:52:51;2.40;;;1.70;;
4504;SDS011;2265;48.794;9.520;2023-04-15T13:55:18;2.60;;;1.90;;
4504;SDS011;2265;48.794;9.520;2023-04-15T13:57:45;1.70;;;1.60;;
4504;SDS011;2265;48.794;9.520;2023-04-15T14:00:13;2.47;;;1.60;;
4504;SDS011;2265;48.794;9.520;2023-04-15T14:02:40;2.33;;;1.33;;
4504;SDS011;2265;48.794;9.520;2023-04-15T14:05:09;1.73;;;1.57;;
4504;SDS011;2265;48.794;9.520;2023-04-15T14:07:38;2.80;;;1.77;;
4504;SDS011;2265;48.794;9.520;2023-04-15T14:10:06;2.00;;;1.37;;
4504;SDS011;2265;48.794;9.520;2023-04-15T14:12:34;1.70;;;1.20;;
4504;SDS011;2265;48.794;9.520;2023-04-15T14:15:01;1.70;;;1.20;;
4504;SDS011;2265;48.794;9.520;2023-04-15T14:17:29;1.60;;;1.30;;
4504;SDS011;2265;48.794;9.520;2023-04-15T14:19:58;1.53;;;1.37;;
4504;SDS011;2265;48.794;9.520;2023-04-15T14:22:25;1.30;;;1.20;;
4504;SDS011;2265;48.794;9.520;2023-04-15T14:24:54;6.30;;;1.40;;
4504;SDS011;2265;48.794;9.520;2023-04-15T14:27:21;2.03;;;1.50;;
4504;SDS011;2265;48.794;9.520;2023-04-15T14:29:52;3.20;;;1.40;;
4504;SDS011;2265;48.794;9.520;2023-04-15T14:32:19;2.83;;;1.50;;
4504;SDS011;2265;48.794;9.520;2023-04-15T14:34:46;1.40;;;1.30;;
4504;SDS011;2265;48.794;9.520;2023-04-15T14:37:13;2.67;;;1.50;;
4504;SDS011;2265;48.794;9.520;2023-04-15T14:39:40;3.67;;;1.30;;
4504;SDS011;2265;48.794;9.520;2023-04-15T14:42:09;1.50;;;1.40;;
4504;SDS011;2265;48.794;9.520;2023-04-15T14:44:36;1.90;;;1.40;;
4504;SDS011;2265;48.794;9.520;2023-04-15T14:47:03;1.50;;;1.23;;
4504;SDS011;2265;48.794;9.520;2023-04-15T14:49:31;2.47;;;1.60;;
4504;SDS011;2265;48.794;9.520;2023-04-15T14:51:58;1.93;;;1.30;;
4504;SDS011;2265;48.794;9.520;2023-04-15T14:54:25;1.93;;;1.40;;
4504;SDS011;2265;48.794;9.520;2023-04-15T14:56:52;1.47;;;1.20;;
4504;SDS011;2265;48.794;9.520;2023-04-15T14:59:21;1.70;;;1.30;;
4504;SDS011;2265;48.794;9.520;2023-04-15T15:01:48;2.73;;;1.60;;
4504;SDS011;2265;48.794;9.520;2023-04-15T15:06:46;2.50;;;1.40;;
4504;SDS011;2265;48.794;9.520;2023-04-15T15:09:14;1.77;;;1.30;;
4504;SDS011;2265;48.794;9.520;2023-04-15T15:11:41;1.87;;;1.33;;
4504;SDS011;2265;48.794;9.520;2023-04-15T15:14:07;4.53;;;1.53;;
4504;SDS011;2265;48.794;9.520;2023-04-15T15:16:37;1.87;;;1.40;;
4504;SDS011;2265;48.794;9.520;2023-04-15T15:19:04;1.57;;;1.30;;
4504;SDS011;2265;48.794;9.520;2023-04-15T15:21:31;1.77;;;1.30;;
4504;SDS011;2265;48.794;9.520;2023-04-15T15:26:28;1.80;;;1.40;;
4504;SDS011;2265;48.794;9.520;2023-04-15T15:28:55;1.70;;;1.40;;
4504;SDS011;2265;48.794;9.520;2023-04-15T15:31:22;1.70;;;1.40;;
4504;SDS011;2265;48.794;9.520;2023-04-15T15:33:50;1.67;;;1.30;;
4504;SDS011;2265;48.794;9.520;2023-04-15T15:36:18;2.33;;;1.50;;